Terminal Aerodrome Forecast
Issued by NWS Denver/Boulder, CO

Home | Current Version | Previous Version | Graphics & Text | Print | Product List | Glossary On
Versions: 1 2 3 4 5 6 7 8 9 10 11 12 13 14 15 16 17 18 19 20 21 22 23 24 25 26 27 28 29 30 31 32 33 34 35 36 37 38
000
FTUS45 KBOU 210218 AAB
TAFDEN
TAF AMD
KDEN 210218Z 2102/2206 31010KT P6SM VCSH SCT080 BKN120
      TEMPO 2102/2104 -SHRA BKN080
     FM210400 26007KT P6SM SCT120
     FM210600 34010KT P6SM FEW060 SCT080
     FM211200 01007KT P6SM SCT035 BKN050
     FM211600 08007KT P6SM FEW050 SCT090
     FM212000 12010KT P6SM SCT090 SCT150
     FM212300 17010KT P6SM SCT090 SCT150=

USA.gov is the U.S. government's official web portal to all federal, state and local government web resources and services.